PHX weather

Phoenix Sky Harbor International Airport
Phoenix, Arizona, United States

Public forecast

Using degrees Fahrenheit for public forecast. Weather courtesy of forecast.io.

Current aviation weather report (METAR) for Phoenix Sky Harbor International Airport

Retrieved 2019/10/22 23:51 UTC (1 hour ago):

KPHX 222351Z 32006KT 10SM FEW030 31/M03 A2993 RMK AO2 SLP121 FU FEW030 N T03111028 57018

Aviation forecast (TAF) for Phoenix Sky Harbor International Airport

Retrieved 2019-10-23 00:28 UTC (29 minutes ago):

TAF KPHX 222326Z 2300/2406 27005KT P6SM SKC FM230600 12005KT P6SM SKC FM232100 27005KT P6SM SKC